createdAt,value
2019-05-03T00:02:32.314Z,99230.44
2019-05-03T00:05:43.406Z,99236.72
2019-05-03T00:08:46.893Z,99248.63
2019-05-03T00:11:50.406Z,99252.34
2019-05-03T00:14:57.426Z,99251.15
2019-05-03T00:18:02.376Z,99246.87
2019-05-03T00:21:09.307Z,99245.35
2019-05-03T00:24:12.707Z,99241.64
2019-05-03T00:27:16.112Z,99249.96
2019-05-03T00:30:22.415Z,99259.98
2019-05-03T00:33:26.791Z,99262.27
2019-05-03T00:36:36.498Z,99260.26
2019-05-03T00:39:57.639Z,99258.28
2019-05-03T00:43:02.322Z,99260.94
2019-05-03T00:46:05.984Z,99261.59
2019-05-03T00:49:09.487Z,99260.26
2019-05-03T00:52:12.982Z,99259.27
2019-05-03T00:55:19.186Z,99255.80
2019-05-03T00:58:22.464Z,99254.61
2019-05-03T01:01:26.155Z,99255.94
2019-05-03T01:04:31.663Z,99256.89
2019-05-03T01:07:34.930Z,99264.88
2019-05-03T01:10:38.534Z,99265.02
2019-05-03T01:13:42.340Z,99255.94
2019-05-03T01:16:45.856Z,99265.52
2019-05-03T01:19:49.394Z,99251.58
2019-05-03T01:22:52.916Z,99247.19
2019-05-03T01:25:57.443Z,99245.07
2019-05-03T01:29:02.740Z,99241.39
2019-05-03T01:32:06.299Z,99234.58
2019-05-03T01:35:12.314Z,99236.22
2019-05-03T01:38:15.853Z,99243.55
2019-05-03T01:41:19.454Z,99234.23
2019-05-03T01:44:22.952Z,99245.16
2019-05-03T01:47:37.332Z,99236.84
2019-05-03T01:50:58.540Z,99238.03
2019-05-03T01:54:01.953Z,99239.98
2019-05-03T01:57:05.422Z,99240.83
2019-05-03T02:00:11.759Z,99250.75
2019-05-03T02:03:22.719Z,99247.14
2019-05-03T02:06:26.285Z,99250.47
2019-05-03T02:09:29.709Z,99255.26
2019-05-03T02:12:33.175Z,99252.45
2019-05-03T02:15:36.579Z,99258.39
2019-05-03T02:18:39.988Z,99253.73
2019-05-03T02:21:43.449Z,99251.41
2019-05-03T02:24:46.891Z,99253.36
2019-05-03T02:27:50.367Z,99259.66
2019-05-03T02:30:53.954Z,99255.06
2019-05-03T02:33:57.380Z,99254.69
2019-05-03T02:37:02.947Z,99255.67
2019-05-03T02:40:06.929Z,99256.39
2019-05-03T02:43:39.993Z,99260.71
2019-05-03T02:47:05.548Z,99269.50
2019-05-03T02:50:12.092Z,99273.30
2019-05-03T02:53:15.871Z,99280.16
2019-05-03T02:56:22.405Z,99277.87
2019-05-03T02:59:26.714Z,99290.17
2019-05-03T03:02:30.361Z,99285.48
2019-05-03T03:05:35.302Z,99286.19
2019-05-03T03:08:38.854Z,99286.61
2019-05-03T03:11:45.633Z,99285.62
2019-05-03T03:14:48.522Z,99289.84
2019-05-03T03:17:52.735Z,99292.63
2019-05-03T03:20:56.358Z,99297.81
2019-05-03T03:24:05.890Z,99297.10
2019-05-03T03:27:08.091Z,99301.42
2019-05-03T03:30:30.395Z,99302.14
2019-05-03T03:33:33.929Z,99309.06
2019-05-03T03:36:58.785Z,99318.64
2019-05-03T03:39:50.725Z,99312.27
2019-05-03T03:42:55.750Z,99318.23
2019-05-03T03:45:59.397Z,99318.58
2019-05-03T03:49:02.874Z,99345.50
2019-05-03T03:52:06.368Z,99340.18
2019-05-03T03:55:10.222Z,99342.84
2019-05-03T03:58:21.765Z,99344.51
2019-05-03T04:01:18.927Z,99347.17
2019-05-03T04:04:25.749Z,99363.11
2019-05-03T04:07:27.803Z,99369.55
2019-05-03T04:10:31.228Z,99377.53
2019-05-03T04:13:36.187Z,99379.64
2019-05-03T04:16:52.123Z,99387.61
2019-05-03T04:19:56.156Z,99384.82
2019-05-03T04:22:59.613Z,99389.28
2019-05-03T04:26:03.118Z,99396.92
2019-05-03T04:29:06.625Z,99402.23
2019-05-03T04:32:10.594Z,99409.83
2019-05-03T04:35:16.416Z,99414.47
2019-05-03T04:38:19.161Z,99421.79
2019-05-03T04:41:22.666Z,99423.42
2019-05-03T04:44:26.240Z,99427.75
2019-05-03T04:47:29.804Z,99429.42
2019-05-03T04:50:36.559Z,99432.22
2019-05-03T04:53:41.912Z,99438.38
2019-05-03T04:56:46.463Z,99443.05
2019-05-03T04:59:50.107Z,99446.35
2019-05-03T05:02:55.153Z,99448.67
2019-05-03T05:05:59.713Z,99456.98
2019-05-03T05:09:06.271Z,99460.97
2019-05-03T05:12:09.753Z,99466.55
2019-05-03T05:15:15.548Z,99475.93
2019-05-03T05:18:37.651Z,99482.84
2019-05-03T05:21:46.346Z,99474.05
2019-05-03T05:24:49.750Z,99490.47
2019-05-03T05:28:05.697Z,99489.14
2019-05-03T05:31:09.168Z,99490.27
2019-05-03T05:34:12.765Z,99489.48
2019-05-03T05:37:16.288Z,99498.31
2019-05-03T05:40:21.079Z,99501.18
2019-05-03T05:43:25.526Z,99504.37
2019-05-03T05:46:35.219Z,99511.13
2019-05-03T05:49:50.202Z,99511.13
2019-05-03T05:52:55.241Z,99504.37
2019-05-03T05:56:17.505Z,99510.53
2019-05-03T05:59:38.850Z,99504.37
2019-05-03T06:02:42.440Z,99512.84
2019-05-03T06:05:45.923Z,99513.80
2019-05-03T06:08:57.065Z,99512.98
2019-05-03T06:12:09.199Z,99513.08
2019-05-03T06:15:34.478Z,99530.14
2019-05-03T06:18:57.090Z,99527.70
2019-05-03T06:22:07.422Z,99534.13
2019-05-03T06:25:20.691Z,99540.05
2019-05-03T06:28:29.977Z,99539.44
2019-05-03T06:31:39.692Z,99551.40
2019-05-03T06:34:45.390Z,99547.41
2019-05-03T06:37:48.430Z,99544.11
2019-05-03T06:40:51.895Z,99552.00
2019-05-03T06:43:55.404Z,99554.31
2019-05-03T06:47:01.024Z,99555.39
2019-05-03T06:50:05.462Z,99557.32
2019-05-03T06:53:12.781Z,99563.48
2019-05-03T06:56:19.249Z,99558.65
2019-05-03T06:59:32.083Z,99569.63
2019-05-03T07:02:47.604Z,99563.81
2019-05-03T07:06:18.739Z,99569.59
2019-05-03T07:09:28.511Z,99571.27
2019-05-03T07:12:51.095Z,99572.33
2019-05-03T07:15:56.026Z,99577.14
2019-05-03T07:18:59.514Z,99571.22
2019-05-03T07:22:04.840Z,99576.05
2019-05-03T07:25:08.171Z,99585.70
2019-05-03T07:28:14.747Z,99583.39
2019-05-03T07:31:18.844Z,99583.73
2019-05-03T07:34:22.356Z,99590.37
2019-05-03T07:37:25.845Z,99590.37
2019-05-03T07:40:30.356Z,99589.77
2019-05-03T07:43:35.879Z,99588.78
2019-05-03T07:46:39.019Z,99588.44
2019-05-03T07:49:44.543Z,99593.41
2019-05-03T07:52:47.651Z,99602.08
2019-05-03T07:56:10.235Z,99597.74
2019-05-03T07:59:15.062Z,99610.05
2019-05-03T08:02:18.627Z,99602.45
2019-05-03T08:05:22.032Z,99598.20
2019-05-03T08:08:25.713Z,99600.35
2019-05-03T08:11:29.207Z,99606.87
2019-05-03T08:14:32.628Z,99605.75
2019-05-03T08:17:36.154Z,99614.23
2019-05-03T08:20:40.670Z,99609.27
2019-05-03T08:23:45.304Z,99616.97
2019-05-03T08:26:48.899Z,99625.94
2019-05-03T08:29:52.407Z,99615.91
2019-05-03T08:33:08.848Z,99621.22
2019-05-03T08:36:15.617Z,99621.02
2019-05-03T08:39:19.304Z,99618.70
2019-05-03T08:42:26.388Z,99620.16
2019-05-03T08:45:29.971Z,99620.87
2019-05-03T08:48:35.441Z,99622.81
2019-05-03T08:51:38.606Z,99621.83
2019-05-03T08:54:42.010Z,99623.53
2019-05-03T08:57:45.626Z,99632.33
2019-05-03T09:00:49.109Z,99626.54
2019-05-03T09:03:52.601Z,99634.86
2019-05-03T09:06:56.111Z,99643.39
2019-05-03T09:10:05.590Z,99639.48
2019-05-03T09:13:14.863Z,99637.66
2019-05-03T09:16:19.416Z,99636.70
2019-05-03T09:19:25.303Z,99642.97
2019-05-03T09:22:28.986Z,99646.14
2019-05-03T09:25:35.527Z,99639.58
2019-05-03T09:28:38.839Z,99644.38
2019-05-03T09:31:44.700Z,99641.97
2019-05-03T09:34:48.311Z,99641.59
2019-05-03T09:37:52.836Z,99644.25
2019-05-03T09:40:56.351Z,99648.62
2019-05-03T09:43:59.850Z,99644.25
2019-05-03T09:47:05.665Z,99643.56
2019-05-03T09:50:12.564Z,99639.23
2019-05-03T09:53:17.755Z,99640.90
2019-05-03T09:56:48.034Z,99635.50
2019-05-03T09:59:56.405Z,99641.38
2019-05-03T10:02:50.745Z,99637.05
2019-05-03T10:05:55.350Z,99639.23
2019-05-03T10:08:58.968Z,99640.39
2019-05-03T10:12:05.467Z,99639.70
2019-05-03T10:15:09.051Z,99628.59
2019-05-03T10:18:15.819Z,99639.23
2019-05-03T10:21:20.598Z,99642.97
2019-05-03T10:24:24.061Z,99649.27
2019-05-03T10:27:29.316Z,99642.63
2019-05-03T10:30:35.310Z,99646.35
2019-05-03T10:33:45.972Z,99639.58
2019-05-03T10:36:49.536Z,99643.56
2019-05-03T10:39:55.946Z,99631.94
2019-05-03T10:42:59.194Z,99625.64
2019-05-03T10:46:04.972Z,99634.94
2019-05-03T10:49:07.838Z,99634.34
2019-05-03T10:52:11.887Z,99635.32
2019-05-03T10:55:15.885Z,99637.34
2019-05-03T10:58:19.660Z,99626.97
2019-05-03T11:01:30.783Z,99626.02
2019-05-03T11:04:35.653Z,99626.70
2019-05-03T11:07:41.337Z,99626.49
2019-05-03T11:10:44.850Z,99622.72
2019-05-03T11:13:48.341Z,99624.55
2019-05-03T11:16:51.832Z,99632.02
2019-05-03T11:19:55.334Z,99628.03
2019-05-03T11:22:58.852Z,99631.55
2019-05-03T11:26:02.495Z,99636.02
2019-05-03T11:29:07.080Z,99638.33
2019-05-03T11:32:35.285Z,99642.78
2019-05-03T11:35:58.934Z,99641.59
2019-05-03T11:39:02.427Z,99635.23
2019-05-03T11:42:07.107Z,99636.83
2019-05-03T11:45:10.669Z,99642.84
2019-05-03T11:48:14.782Z,99641.89
2019-05-03T11:51:18.285Z,99640.90
2019-05-03T11:54:21.688Z,99645.88
2019-05-03T11:57:27.129Z,99636.19
2019-05-03T12:00:34.526Z,99630.05
2019-05-03T12:03:41.138Z,99632.92
2019-05-03T12:06:45.605Z,99627.34
2019-05-03T12:09:55.199Z,99637.34
2019-05-03T12:13:05.477Z,99632.88
2019-05-03T12:16:17.497Z,99628.89
2019-05-03T12:19:19.767Z,99633.43
2019-05-03T12:22:20.914Z,99640.94
2019-05-03T12:25:26.567Z,99626.66
2019-05-03T12:28:30.645Z,99626.52
2019-05-03T12:31:40.145Z,99624.92
2019-05-03T12:34:39.260Z,99632.56
2019-05-03T12:37:42.733Z,99619.00
2019-05-03T12:40:46.238Z,99614.50
2019-05-03T12:43:49.754Z,99618.01
2019-05-03T12:46:54.303Z,99614.09
2019-05-03T12:49:57.791Z,99609.77
2019-05-03T12:53:01.269Z,99608.78
2019-05-03T12:56:11.910Z,99599.47
2019-05-03T12:59:17.107Z,99599.47
2019-05-03T13:02:26.505Z,99599.98
2019-05-03T13:05:30.493Z,99593.88
2019-05-03T13:08:38.891Z,99592.55
2019-05-03T13:11:54.573Z,99584.09
2019-05-03T13:14:50.151Z,99588.91
2019-05-03T13:17:55.338Z,99594.95
2019-05-03T13:20:58.997Z,99595.93
2019-05-03T13:24:02.481Z,99592.62
2019-05-03T13:27:06.033Z,99589.97
2019-05-03T13:30:09.523Z,99585.97
2019-05-03T13:33:14.974Z,99590.34
2019-05-03T13:36:18.340Z,99588.64
2019-05-03T13:39:21.857Z,99592.15
2019-05-03T13:42:25.349Z,99582.36
2019-05-03T13:45:29.865Z,99579.70
2019-05-03T13:48:42.771Z,99571.08
2019-05-03T13:51:38.535Z,99565.48
2019-05-03T13:54:42.006Z,99564.16
2019-05-03T13:57:46.079Z,99563.92
2019-05-03T14:00:51.150Z,99561.39
2019-05-03T14:03:54.780Z,99565.38
2019-05-03T14:06:58.285Z,99556.17
2019-05-03T14:10:01.779Z,99558.59
2019-05-03T14:13:05.687Z,99556.63
2019-05-03T14:16:09.196Z,99552.63
2019-05-03T14:19:17.829Z,99557.61
2019-05-03T14:22:24.825Z,99548.64
2019-05-03T14:25:28.475Z,99554.81
2019-05-03T14:28:31.976Z,99556.92
2019-05-03T14:31:35.481Z,99559.92
2019-05-03T14:34:38.993Z,99555.94
2019-05-03T14:37:45.704Z,99558.45
2019-05-03T14:40:48.865Z,99556.28
2019-05-03T14:43:52.361Z,99561.13
2019-05-03T14:46:59.186Z,99557.13
2019-05-03T14:50:05.365Z,99562.31
2019-05-03T14:53:08.600Z,99559.28
2019-05-03T14:56:17.381Z,99553.69
2019-05-03T14:59:55.198Z,99551.53
2019-05-03T15:03:07.093Z,99550.20
2019-05-03T15:06:10.543Z,99554.88
2019-05-03T15:09:18.591Z,99552.36
2019-05-03T15:12:20.399Z,99549.70
2019-05-03T15:15:25.065Z,99544.48
2019-05-03T15:18:28.633Z,99548.09
2019-05-03T15:21:32.219Z,99550.27
2019-05-03T15:24:35.649Z,99539.50
2019-05-03T15:27:39.131Z,99539.16
2019-05-03T15:30:44.472Z,99540.48
2019-05-03T15:33:47.997Z,99541.81
2019-05-03T15:36:51.481Z,99545.81
2019-05-03T15:39:55.143Z,99551.95
2019-05-03T15:43:09.031Z,99556.45
2019-05-03T15:46:40.551Z,99546.14
2019-05-03T15:49:44.772Z,99553.55
2019-05-03T15:53:01.214Z,99549.70
2019-05-03T15:56:05.404Z,99552.02
2019-05-03T15:59:09.042Z,99557.34
2019-05-03T16:02:12.539Z,99560.71
2019-05-03T16:05:17.179Z,99556.08
2019-05-03T16:08:20.761Z,99546.77
2019-05-03T16:11:25.391Z,99538.09
2019-05-03T16:14:29.216Z,99539.77
2019-05-03T16:17:32.691Z,99543.05
2019-05-03T16:20:39.265Z,99540.52
2019-05-03T16:23:41.326Z,99548.64
2019-05-03T16:27:02.503Z,99551.47
2019-05-03T16:30:15.988Z,99541.17
2019-05-03T16:33:27.188Z,99539.50
2019-05-03T16:36:24.827Z,99525.69
2019-05-03T16:39:29.354Z,99528.00
2019-05-03T16:42:32.803Z,99522.69
2019-05-03T16:45:36.408Z,99529.33
2019-05-03T16:48:39.877Z,99523.67
2019-05-03T16:51:44.271Z,99527.66
2019-05-03T16:54:47.890Z,99530.32
2019-05-03T16:57:51.435Z,99528.99
2019-05-03T17:00:55.319Z,99532.23
2019-05-03T17:04:18.063Z,99535.88
2019-05-03T17:07:36.202Z,99536.36
2019-05-03T17:10:42.693Z,99538.81
2019-05-03T17:13:47.974Z,99544.13
2019-05-03T17:16:52.738Z,99542.09
2019-05-03T17:19:56.270Z,99542.46
2019-05-03T17:22:59.754Z,99542.09
2019-05-03T17:26:04.271Z,99539.08
2019-05-03T17:29:07.793Z,99532.44
2019-05-03T17:32:11.298Z,99537.41
2019-05-03T17:35:14.793Z,99541.41
2019-05-03T17:38:18.293Z,99535.70
2019-05-03T17:41:35.621Z,99531.38
2019-05-03T17:44:42.088Z,99536.36
2019-05-03T17:47:45.568Z,99532.36
2019-05-03T17:50:49.090Z,99537.95
2019-05-03T17:53:58.574Z,99541.59
2019-05-03T17:57:06.633Z,99543.55
2019-05-03T18:00:34.850Z,99538.22
2019-05-03T18:03:41.034Z,99535.56
2019-05-03T18:06:55.612Z,99531.23
2019-05-03T18:10:00.388Z,99539.21
2019-05-03T18:13:03.947Z,99531.84
2019-05-03T18:16:07.509Z,99536.34
2019-05-03T18:19:10.965Z,99533.17
2019-05-03T18:22:15.285Z,99539.95
2019-05-03T18:25:20.008Z,99543.13
2019-05-03T18:28:25.018Z,99552.06
2019-05-03T18:31:28.444Z,99551.23
2019-05-03T18:34:34.055Z,99552.49
2019-05-03T18:37:37.482Z,99555.70
2019-05-03T18:40:40.989Z,99551.37
2019-05-03T18:43:56.114Z,99558.02
2019-05-03T18:47:02.376Z,99564.67
2019-05-03T18:50:05.969Z,99561.02
2019-05-03T18:53:09.543Z,99562.02
2019-05-03T18:56:14.678Z,99560.17
2019-05-03T18:59:18.173Z,99564.53
2019-05-03T19:02:21.959Z,99572.64
2019-05-03T19:05:27.158Z,99570.25
2019-05-03T19:08:48.652Z,99577.25
2019-05-03T19:12:01.468Z,99583.55
2019-05-03T19:15:06.039Z,99577.64
2019-05-03T19:18:18.342Z,99577.38
2019-05-03T19:21:21.830Z,99572.06
2019-05-03T19:24:25.308Z,99579.56
2019-05-03T19:27:28.825Z,99583.89
2019-05-03T19:30:35.200Z,99570.25
2019-05-03T19:33:38.678Z,99567.59
2019-05-03T19:36:45.414Z,99570.73
2019-05-03T19:39:48.329Z,99572.91
2019-05-03T19:42:51.846Z,99568.58
2019-05-03T19:45:56.656Z,99574.24
2019-05-03T19:49:00.837Z,99572.06
2019-05-03T19:52:06.198Z,99569.91
2019-05-03T19:55:15.428Z,99565.92
2019-05-03T19:58:24.774Z,99560.60
2019-05-03T20:01:38.210Z,99566.41
2019-05-03T20:05:14.959Z,99561.56
2019-05-03T20:08:22.407Z,99559.28
2019-05-03T20:11:27.668Z,99565.20
2019-05-03T20:14:31.165Z,99570.18
2019-05-03T20:17:35.690Z,99565.58
2019-05-03T20:20:39.185Z,99568.50
2019-05-03T20:23:46.590Z,99563.45
2019-05-03T20:26:49.117Z,99558.66
2019-05-03T20:29:52.713Z,99561.83
2019-05-03T20:32:56.415Z,99563.29
2019-05-03T20:35:59.902Z,99563.29
2019-05-03T20:39:05.436Z,99567.88
2019-05-03T20:42:09.011Z,99568.53
2019-05-03T20:45:17.903Z,99574.10
2019-05-03T20:48:21.940Z,99574.67
2019-05-03T20:51:25.376Z,99575.43
2019-05-03T20:54:28.789Z,99568.67
2019-05-03T20:57:32.274Z,99565.16
2019-05-03T21:00:35.763Z,99563.48
2019-05-03T21:03:39.278Z,99567.23
2019-05-03T21:06:42.760Z,99568.21
2019-05-03T21:09:46.276Z,99561.22
2019-05-03T21:12:49.785Z,99558.56
2019-05-03T21:16:04.202Z,99559.55
2019-05-03T21:19:15.774Z,99551.58
2019-05-03T21:22:37.331Z,99553.30
2019-05-03T21:26:05.738Z,99558.11
2019-05-03T21:28:49.171Z,99553.91
2019-05-03T21:31:52.743Z,99561.75
2019-05-03T21:34:56.264Z,99563.42
2019-05-03T21:37:59.761Z,99564.41
2019-05-03T21:41:05.008Z,99566.37
2019-05-03T21:44:10.041Z,99561.53
2019-05-03T21:47:29.116Z,99559.98
2019-05-03T21:50:32.536Z,99562.38
2019-05-03T21:53:38.045Z,99562.27
2019-05-03T21:56:41.242Z,99553.09
2019-05-03T21:59:45.646Z,99549.97
2019-05-03T22:02:49.336Z,99557.94
2019-05-03T22:05:57.407Z,99554.21
2019-05-03T22:08:58.413Z,99554.08
2019-05-03T22:12:01.912Z,99553.86
2019-05-03T22:15:18.858Z,99549.03
2019-05-03T22:18:26.964Z,99541.91
2019-05-03T22:21:42.447Z,99542.05
2019-05-03T22:24:49.880Z,99540.84
2019-05-03T22:27:54.652Z,99545.47
2019-05-03T22:31:00.185Z,99543.16
2019-05-03T22:34:04.570Z,99543.16
2019-05-03T22:37:08.098Z,99540.16
2019-05-03T22:40:11.520Z,99541.95
2019-05-03T22:43:15.941Z,99528.80
2019-05-03T22:46:20.472Z,99532.31
2019-05-03T22:49:25.940Z,99530.73
2019-05-03T22:52:29.295Z,99522.77
2019-05-03T22:55:32.794Z,99514.80
2019-05-03T22:58:36.231Z,99512.78
2019-05-03T23:01:39.952Z,99511.45
2019-05-03T23:04:44.773Z,99506.14
2019-05-03T23:07:48.452Z,99505.42
2019-05-03T23:10:51.942Z,99507.34
2019-05-03T23:14:01.600Z,99499.77
2019-05-03T23:17:05.269Z,99496.26
2019-05-03T23:20:17.632Z,99492.41
2019-05-03T23:23:38.878Z,99493.13
2019-05-03T23:26:42.334Z,99485.30
2019-05-03T23:29:45.925Z,99489.06
2019-05-03T23:32:50.467Z,99481.78
2019-05-03T23:35:55.153Z,99477.59
2019-05-03T23:38:58.708Z,99479.39
2019-05-03T23:42:02.412Z,99477.94
2019-05-03T23:45:05.933Z,99471.08
2019-05-03T23:48:09.356Z,99473.13
2019-05-03T23:51:31.944Z,99475.41
2019-05-03T23:54:35.389Z,99474.20
2019-05-03T23:57:39.859Z,99472.67
